METAR Data
IDs: Format: Raw Decoded Include TAF

Data at: 2133 UTC 10 May 2021

KHEQ 102115Z AUTO 11010G14KT 10SM -RA BKN006 BKN017 06/03 A3017 RMK AO2 P0003
KHEQ 102055Z AUTO 11012KT 10SM -RA SCT006 BKN019 07/03 A3017 RMK AO2 P0002
KHEQ 102035Z AUTO 10008KT 10SM -RA SCT006 SCT016 SCT022 07/03 A3018 RMK AO2 P0001
KHEQ 102015Z AUTO 10008KT 10SM -RA BKN006 BKN018 BKN023 07/03 A3018 RMK AO2
KHEQ 101955Z AUTO 14007KT 7SM RA SCT003 BKN006 BKN014 07/03 A3018 RMK AO2 P0005
KHEQ 101935Z AUTO 14006KT 10SM -RA SCT006 BKN021 07/03 A3018 RMK AO2 P0001
KHEQ 101915Z AUTO 12004KT 10SM -RA BKN006 BKN021 07/03 A3018 RMK AO2 P0001
KHEQ 101855Z AUTO 14006KT 10SM -RA BKN008 BKN011 BKN020 07/03 A3018 RMK AO2 P0004
KHEQ 101835Z AUTO 14007KT 10SM -RA BKN008 BKN011 BKN019 07/03 A3018 RMK AO2 P0003
KHEQ 101815Z AUTO 15011G14KT 10SM -RA SCT004 BKN008 BKN017 07/03 A3018 RMK AO2 P0001
KHEQ 101755Z AUTO 15007KT 10SM -RA BKN006 BKN010 OVC020 07/03 A3019 RMK AO2 P0005 LTG DSNT W
KHEQ 101735Z AUTO 16012KT 10SM -RA SCT006 BKN010 BKN020 07/03 A3019 RMK AO2 P0002
KHEQ 101715Z AUTO 15007KT 10SM -RA SCT008 BKN020 BKN032 06/02 A3019 RMK AO2 P0001
KHEQ 101655Z AUTO 18014G19KT 10SM DZ SCT009 SCT013 BKN031 07/02 A3019 RMK AO2 P0002
KHEQ 101635Z AUTO 13006G09KT 7SM RA SCT008 BKN012 OVC026 07/02 A3018 RMK AO2 P0002
KHEQ 101615Z AUTO 17007G18KT 10SM -RA BKN008 BKN026 08/02 A3018 RMK AO2
KHEQ 101555Z AUTO 19007KT 10SM -RA SCT008 SCT026 BKN037 08/03 A3017 RMK AO2
KHEQ 101535Z AUTO 17007KT 10SM -RA SCT026 BKN035 BKN045 09/03 A3017 RMK AO2
KHEQ 101515Z AUTO 18007KT 10SM SCT024 BKN028 BKN035 10/03 A3016 RMK AO2
KHEQ 101455Z AUTO 19006KT 10SM -DZ SCT020 BKN027 09/03 A3016 RMK AO2
KHEQ 101435Z AUTO 20006KT 10SM BKN018 09/03 A3016 RMK AO2
KHEQ 101415Z AUTO 16004KT 10SM SCT016 08/04 A3017 RMK AO2
KHEQ 101355Z AUTO 14006KT 10SM CLR 08/04 A3017 RMK AO2
KHEQ 101335Z AUTO 14007KT 10SM CLR 08/04 A3016 RMK AO2
KHEQ 101315Z AUTO 14008KT 10SM CLR 07/04 A3016 RMK AO2
KHEQ 101255Z AUTO 13005KT 10SM CLR 07/04 A3015 RMK AO2
KHEQ 101235Z AUTO 11005KT 10SM CLR 07/03 A3015 RMK AO2
KHEQ 101215Z AUTO 14004KT 10SM CLR 07/03 A3014 RMK AO2
KHEQ 101155Z AUTO 16004KT 10SM CLR 07/03 A3014 RMK AO2
KHEQ 101135Z AUTO 19004KT 10SM SCT065 06/02 A3014 RMK AO2
KHEQ 101115Z AUTO 00000KT 10SM SCT065 06/03 A3014 RMK AO2
KHEQ 101055Z AUTO 16004KT 10SM SCT065 06/02 A3014 RMK AO2
KHEQ 101035Z AUTO 18007KT 10SM SCT065 06/02 A3014 RMK AO2
KHEQ 101015Z AUTO 16005KT 10SM CLR 06/02 A3014 RMK AO2
KHEQ 100955Z AUTO 17007KT 10SM SCT080 06/02 A3014 RMK AO2
KHEQ 100935Z AUTO 17006KT 10SM OVC080 06/02 A3013 RMK AO2
KHEQ 100915Z AUTO 17005KT 10SM BKN080 BKN110 05/01 A3013 RMK AO2
KHEQ 100855Z AUTO 16003KT 10SM SCT080 SCT110 05/01 A3012 RMK AO2
KHEQ 100835Z AUTO 18006KT 10SM SCT080 05/01 A3013 RMK AO2
KHEQ 100815Z AUTO 17005KT 10SM SCT080 03/00 A3013 RMK AO2
KHEQ 100755Z AUTO 16006KT 10SM CLR 03/00 A3013 RMK AO2
KHEQ 100735Z AUTO 17004KT 10SM CLR 04/00 A3014 RMK AO2
KHEQ 100715Z AUTO 17005KT 10SM CLR 05/00 A3014 RMK AO2
KHEQ 100655Z AUTO 15005KT 10SM SCT100 05/00 A3014 RMK AO2 LTG DSNT S
KHEQ 100635Z AUTO 13005KT 10SM BKN100 05/00 A3014 RMK AO2
KHEQ 100615Z AUTO 14004KT 10SM BKN100 05/00 A3014 RMK AO2 LTG DSNT S
KHEQ 100555Z AUTO 00000KT 10SM SCT100 05/00 A3014 RMK AO2
KHEQ 100535Z AUTO 16003KT 10SM CLR 05/00 A3014 RMK AO2
KHEQ 100515Z AUTO 00000KT 10SM CLR 05/00 A3014 RMK AO2 LTG DSNT S
KHEQ 100455Z AUTO 19005KT 10SM CLR 06/00 A3014 RMK AO2
KHEQ 100435Z AUTO 17004KT 10SM CLR 06/00 A3014 RMK AO2
KHEQ 100415Z AUTO 17006KT 10SM CLR 07/00 A3014 RMK AO2
KHEQ 100355Z AUTO 17006KT 10SM CLR 08/00 A3014 RMK AO2
KHEQ 100335Z AUTO 15006KT 10SM CLR 08/00 A3013 RMK AO2
KHEQ 100315Z AUTO 16008KT 10SM CLR 09/00 A3012 RMK AO2
KHEQ 100255Z AUTO 15008KT 10SM CLR 11/00 A3012 RMK AO2
KHEQ 100235Z AUTO 15008KT 10SM CLR 12/01 A3011 RMK AO2
KHEQ 100215Z AUTO 15010KT 10SM CLR 12/00 A3010 RMK AO2
KHEQ 100155Z AUTO 15007KT 10SM CLR 12/00 A3009 RMK AO2
KHEQ 100135Z AUTO 17006KT 10SM CLR 12/M01 A3008 RMK AO2
KHEQ 100115Z AUTO 13004KT 10SM CLR 13/M01 A3008 RMK AO2
KHEQ 100055Z AUTO 00000KT 10SM CLR 13/M03 A3007 RMK AO2
KHEQ 100035Z AUTO 06003KT 10SM CLR 15/M01 A3006 RMK AO2
KHEQ 100015Z AUTO 06004KT 10SM CLR 15/M02 A3006 RMK AO2
KHEQ 092355Z AUTO 04004KT 10SM CLR 15/M02 A3006 RMK AO2
KHEQ 092335Z AUTO 03004KT 10SM SCT070 15/M02 A3006 RMK AO2
KHEQ 092315Z AUTO 09003KT 10SM SCT070 15/M02 A3006 RMK AO2
KHEQ 092255Z AUTO 08003KT 10SM SCT070 15/M02 A3005 RMK AO2
KHEQ 092235Z AUTO 07006KT 10SM SCT070 15/M03 A3005 RMK AO2
KHEQ 092215Z AUTO 00000KT 7SM SCT070 15/M03 A3005 RMK AO2
KHEQ 092155Z AUTO 12005KT 10SM CLR 15/M03 A3006 RMK AO2
KHEQ 092135Z AUTO 04005KT 10SM CLR 15/M02 A3006 RMK AO2
KHEQ 092115Z AUTO 01006KT 10SM CLR 15/M02 A3006 RMK AO2
KHEQ 092055Z AUTO 03003G08KT 10SM SCT060 15/M03 A3006 RMK AO2
KHEQ 092035Z AUTO 03006KT 10SM SCT060 16/M02 A3006 RMK AO2
KHEQ 092015Z AUTO 35006KT 10SM CLR 16/M01 A3007 RMK AO2
KHEQ 091955Z AUTO 00000KT 10SM CLR 15/M02 A3008 RMK AO2
KHEQ 091935Z AUTO 35006KT 10SM CLR 16/M01 A3008 RMK AO2
KHEQ 091915Z AUTO 33006KT 10SM CLR 15/M01 A3008 RMK AO2
KHEQ 091855Z AUTO 34006G09KT 10SM CLR 15/00 A3009 RMK AO2
KHEQ 091835Z AUTO 35005KT 10SM SCT045 15/00 A3010 RMK AO2
KHEQ 091815Z AUTO 07006KT 039V109 10SM CLR 13/00 A3011 RMK AO2
KHEQ 091755Z AUTO 01007KT 10SM SCT036 13/00 A3012 RMK AO2
KHEQ 091735Z AUTO 04007KT 10SM SCT036 13/01 A3013 RMK AO2
KHEQ 091715Z AUTO 04004KT 10SM SCT032 12/01 A3013 RMK AO2
KHEQ 091655Z AUTO 04009KT 339V049 10SM SCT028 12/02 A3013 RMK AO2
KHEQ 091635Z AUTO 36009KT 10SM SCT028 12/02 A3012 RMK AO2
KHEQ 091615Z AUTO 01013G16KT 10SM SCT024 11/02 A3013 RMK AO2
KHEQ 091555Z AUTO 34007KT 10SM SCT024 09/01 A3013 RMK AO2
KHEQ 091535Z AUTO 01010KT 10SM BKN022 08/01 A3013 RMK AO2
KHEQ 091515Z AUTO 01013G16KT 10SM OVC020 07/01 A3013 RMK AO2
KHEQ 091455Z AUTO 01011KT 10SM OVC018 07/01 A3012 RMK AO2
KHEQ 091435Z AUTO 01013KT 10SM OVC018 06/01 A3012 RMK AO2
KHEQ 091415Z AUTO 36013KT 10SM BKN014 05/01 A3012 RMK AO2
KHEQ 091355Z AUTO 01015G20KT 10SM BKN012 05/01 A3012 RMK AO2
KHEQ 091335Z AUTO 36016G21KT 10SM BKN010 05/01 A3011 RMK AO2
KHEQ 091315Z AUTO 36016G21KT 10SM OVC010 05/02 A3011 RMK AO2
KHEQ 091255Z AUTO 35015KT 10SM BKN010 OVC014 03/01 A3010 RMK AO2
KHEQ 091235Z AUTO 36011G15KT 10SM SCT014 03/01 A3010 RMK AO2
KHEQ 091215Z AUTO 35008KT 10SM CLR 03/01 A3009 RMK AO2
KHEQ 091155Z AUTO 34007KT 10SM CLR 03/01 A3008 RMK AO2
KHEQ 091135Z AUTO 34008KT 10SM CLR 03/01 A3006 RMK AO2
KHEQ 091115Z AUTO 34009KT 10SM CLR 03/01 A3005 RMK AO2
KHEQ 091055Z AUTO 34008KT 10SM CLR 03/01 A3006 RMK AO2
KHEQ 091035Z AUTO 34007KT 10SM CLR 03/01 A3005 RMK AO2
KHEQ 091015Z AUTO 34007KT 10SM CLR 03/01 A3005 RMK AO2
KHEQ 090955Z AUTO 35008KT 10SM CLR 03/01 A3005 RMK AO2
KHEQ 090935Z AUTO 36008KT 10SM CLR 03/01 A3005 RMK AO2